createdAt,value
2019-02-02T00:01:56.026Z,40.40
2019-02-02T00:04:29.492Z,40.20
2019-02-02T00:07:03.747Z,40.50
2019-02-02T00:09:37.427Z,40.90
2019-02-02T00:12:11.766Z,40.90
2019-02-02T00:14:45.961Z,41.10
2019-02-02T00:17:19.231Z,41.50
2019-02-02T00:19:52.552Z,41.60
2019-02-02T00:22:26.608Z,41.10
2019-02-02T00:25:00.616Z,41.00
2019-02-02T00:27:41.133Z,40.80
2019-02-02T00:30:12.484Z,40.50
2019-02-02T00:32:46.701Z,40.10
2019-02-02T00:35:20.616Z,39.50
2019-02-02T00:37:54.826Z,39.40
2019-02-02T00:40:28.945Z,39.00
2019-02-02T00:43:02.868Z,39.10
2019-02-02T00:45:37.129Z,39.30
2019-02-02T00:48:10.798Z,39.20
2019-02-02T00:50:44.591Z,39.10
2019-02-02T00:53:17.991Z,39.30
2019-02-02T00:55:51.764Z,39.70
2019-02-02T00:58:25.717Z,40.10
2019-02-02T01:00:59.896Z,40.10
2019-02-02T01:03:33.697Z,40.10
2019-02-02T01:06:08.147Z,40.10
2019-02-02T01:08:42.515Z,40.20
2019-02-02T01:11:16.487Z,41.00
2019-02-02T01:13:50.675Z,41.40
2019-02-02T01:16:24.982Z,41.30
2019-02-02T01:18:58.850Z,41.30
2019-02-02T01:21:33.000Z,41.50
2019-02-02T01:24:06.441Z,42.00
2019-02-02T01:26:40.644Z,42.00
2019-02-02T01:29:14.353Z,42.50
2019-02-02T01:31:47.708Z,42.30
2019-02-02T01:34:21.544Z,42.40
2019-02-02T01:36:55.895Z,42.80
2019-02-02T01:39:29.567Z,42.40
2019-02-02T01:42:03.624Z,41.80
2019-02-02T01:44:37.877Z,41.50
2019-02-02T01:47:11.691Z,41.20
2019-02-02T01:49:45.283Z,41.10
2019-02-02T01:52:19.093Z,40.90
2019-02-02T01:54:53.424Z,40.90
2019-02-02T01:57:27.044Z,41.20
2019-02-02T02:00:00.913Z,40.90
2019-02-02T02:02:52.780Z,41.30
2019-02-02T02:05:27.099Z,41.50
2019-02-02T02:08:00.471Z,41.60
2019-02-02T02:10:34.310Z,41.60
2019-02-02T02:13:08.439Z,41.30
2019-02-02T02:15:42.260Z,41.30
2019-02-02T02:18:15.596Z,41.30
2019-02-02T02:20:49.436Z,41.60
2019-02-02T02:23:23.329Z,41.60
2019-02-02T02:25:58.059Z,41.20
2019-02-02T02:28:32.484Z,41.30
2019-02-02T02:31:06.359Z,41.10
2019-02-02T02:33:40.225Z,40.90
2019-02-02T02:36:14.069Z,40.80
2019-02-02T02:38:47.516Z,40.80
2019-02-02T02:41:21.314Z,40.60
2019-02-02T02:43:55.620Z,40.90
2019-02-02T02:46:29.664Z,41.10
2019-02-02T02:49:04.060Z,40.90
2019-02-02T02:51:37.760Z,40.30
2019-02-02T02:54:11.764Z,40.30
2019-02-02T02:56:46.679Z,40.40
2019-02-02T02:59:20.508Z,40.40
2019-02-02T03:01:54.423Z,40.90
2019-02-02T03:04:28.636Z,41.10
2019-02-02T03:07:03.058Z,41.10
2019-02-02T03:09:37.623Z,41.40
2019-02-02T03:12:10.986Z,41.80
2019-02-02T03:14:44.376Z,41.80
2019-02-02T03:17:18.725Z,41.40
2019-02-02T03:19:53.226Z,40.80
2019-02-02T03:22:26.597Z,40.60
2019-02-02T03:25:00.444Z,40.70
2019-02-02T03:27:34.542Z,41.00
2019-02-02T03:30:09.805Z,41.00
2019-02-02T03:32:43.727Z,40.90
2019-02-02T03:35:19.333Z,40.70
2019-02-02T03:37:52.928Z,41.50
2019-02-02T03:40:25.886Z,41.60
2019-02-02T03:42:59.952Z,41.30
2019-02-02T03:45:34.018Z,41.10
2019-02-02T03:48:09.838Z,41.10
2019-02-02T03:50:43.743Z,41.30
2019-02-02T03:53:17.634Z,41.10
2019-02-02T03:55:51.547Z,41.00
2019-02-02T03:58:25.431Z,41.70
2019-02-02T04:01:00.159Z,42.00
2019-02-02T04:03:34.248Z,42.00
2019-02-02T04:06:08.454Z,41.50
2019-02-02T04:08:42.586Z,41.40
2019-02-02T04:11:16.926Z,41.00
2019-02-02T04:13:50.658Z,40.60
2019-02-02T04:16:24.913Z,40.10
2019-02-02T04:18:59.269Z,39.60
2019-02-02T04:21:32.700Z,39.70
2019-02-02T04:24:06.470Z,39.70
2019-02-02T04:26:40.494Z,39.60
2019-02-02T04:29:17.821Z,39.60
2019-02-02T04:31:49.842Z,39.80
2019-02-02T04:34:23.782Z,39.80
2019-02-02T04:36:57.339Z,40.00
2019-02-02T04:39:31.667Z,39.90
2019-02-02T04:42:06.379Z,39.80
2019-02-02T04:44:40.165Z,39.80
2019-02-02T04:47:13.997Z,39.80
2019-02-02T04:49:47.838Z,39.60
2019-02-02T04:52:21.802Z,39.80
2019-02-02T04:54:56.033Z,40.00
2019-02-02T04:57:30.252Z,40.00
2019-02-02T05:00:04.056Z,40.40
2019-02-02T05:02:38.072Z,41.10
2019-02-02T05:05:13.303Z,41.70
2019-02-02T05:07:46.633Z,41.90
2019-02-02T05:10:21.545Z,41.90
2019-02-02T05:12:55.420Z,42.00
2019-02-02T05:15:29.657Z,41.80
2019-02-02T05:18:03.657Z,41.40
2019-02-02T05:20:37.858Z,41.10
2019-02-02T05:23:11.872Z,40.80
2019-02-02T05:25:45.683Z,40.70
2019-02-02T05:28:20.017Z,40.60
2019-02-02T05:30:53.917Z,40.70
2019-02-02T05:33:27.705Z,40.50
2019-02-02T05:36:01.616Z,40.50
2019-02-02T05:38:35.558Z,40.30
2019-02-02T05:41:09.297Z,40.20
2019-02-02T05:43:43.174Z,40.30
2019-02-02T05:46:16.899Z,40.60
2019-02-02T05:48:50.877Z,40.60
2019-02-02T05:51:24.611Z,40.30
2019-02-02T05:53:59.023Z,40.20
2019-02-02T05:56:34.045Z,40.10
2019-02-02T05:59:08.256Z,40.20
2019-02-02T06:01:41.931Z,40.40
2019-02-02T06:04:15.915Z,40.60
2019-02-02T06:06:49.445Z,40.70
2019-02-02T06:09:23.956Z,41.20
2019-02-02T06:11:58.185Z,41.50
2019-02-02T06:14:33.354Z,41.80
2019-02-02T06:17:07.499Z,41.90
2019-02-02T06:19:41.872Z,42.00
2019-02-02T06:22:17.527Z,42.40
2019-02-02T06:24:52.840Z,43.10
2019-02-02T06:27:27.942Z,43.90
2019-02-02T06:30:04.683Z,44.60
2019-02-02T06:32:39.114Z,45.10
2019-02-02T06:35:14.884Z,45.40
2019-02-02T06:37:51.634Z,45.50
2019-02-02T06:40:26.731Z,45.70
2019-02-02T06:43:00.917Z,45.60
2019-02-02T06:45:38.887Z,45.40
2019-02-02T06:48:13.716Z,44.90
2019-02-02T06:50:48.053Z,45.20
2019-02-02T06:53:22.124Z,45.30
2019-02-02T06:55:56.893Z,45.30
2019-02-02T06:58:30.822Z,45.40
2019-02-02T07:01:04.654Z,45.40
2019-02-02T07:03:38.105Z,45.30
2019-02-02T07:06:12.203Z,45.40
2019-02-02T07:08:45.406Z,45.50
2019-02-02T07:11:19.713Z,46.00
2019-02-02T07:13:53.721Z,46.20
2019-02-02T07:16:27.547Z,46.70
2019-02-02T07:19:01.405Z,46.70
2019-02-02T07:21:36.142Z,46.80
2019-02-02T07:24:10.898Z,46.70
2019-02-02T07:26:45.075Z,46.80
2019-02-02T07:29:19.253Z,47.00
2019-02-02T07:31:53.948Z,47.90
2019-02-02T07:34:28.805Z,46.80
2019-02-02T07:37:03.177Z,46.70
2019-02-02T07:39:37.035Z,46.30
2019-02-02T07:42:11.121Z,45.80
2019-02-02T07:44:44.513Z,45.50
2019-02-02T07:47:17.380Z,45.30
2019-02-02T07:49:52.068Z,45.30
2019-02-02T07:52:26.630Z,45.10
2019-02-02T07:55:00.581Z,45.20
2019-02-02T07:57:35.196Z,45.00
2019-02-02T08:00:17.722Z,44.90
2019-02-02T08:02:51.983Z,45.10
2019-02-02T08:05:25.924Z,44.90
2019-02-02T08:07:59.571Z,45.20
2019-02-02T08:10:34.157Z,45.40
2019-02-02T08:13:07.606Z,44.90
2019-02-02T08:15:41.298Z,44.80
2019-02-02T08:18:16.087Z,44.60
2019-02-02T08:20:50.001Z,44.70
2019-02-02T08:23:23.603Z,44.50
2019-02-02T08:25:57.344Z,44.90
2019-02-02T08:28:31.618Z,45.00
2019-02-02T08:31:05.120Z,45.20
2019-02-02T08:33:37.725Z,45.20
2019-02-02T08:36:12.002Z,45.00
2019-02-02T08:38:45.515Z,44.50
2019-02-02T08:41:19.551Z,44.50
2019-02-02T08:44:08.548Z,44.50
2019-02-02T08:46:42.899Z,44.60
2019-02-02T08:49:16.846Z,45.10
2019-02-02T08:51:51.324Z,45.20
2019-02-02T08:54:25.804Z,45.60
2019-02-02T08:56:59.879Z,45.60
2019-02-02T08:59:34.037Z,45.00
2019-02-02T09:02:07.708Z,44.90
2019-02-02T09:04:41.653Z,44.60
2019-02-02T09:07:14.553Z,44.60
2019-02-02T09:09:48.799Z,44.70
2019-02-02T09:12:22.857Z,45.00
2019-02-02T09:14:56.947Z,45.10
2019-02-02T09:17:30.869Z,45.30
2019-02-02T09:20:06.403Z,46.00
2019-02-02T09:22:40.335Z,45.10
2019-02-02T09:25:16.373Z,45.00
2019-02-02T09:27:50.106Z,45.00
2019-02-02T09:30:32.663Z,44.90
2019-02-02T09:33:06.508Z,44.40
2019-02-02T09:35:40.505Z,44.30
2019-02-02T09:38:15.101Z,44.30
2019-02-02T09:40:49.065Z,44.10
2019-02-02T09:43:23.541Z,44.10
2019-02-02T09:45:57.532Z,43.50
2019-02-02T09:48:33.200Z,42.90
2019-02-02T09:51:06.963Z,42.10
2019-02-02T09:53:40.403Z,42.20
2019-02-02T09:56:14.906Z,42.50
2019-02-02T09:58:49.736Z,42.70
2019-02-02T10:01:27.811Z,42.70
2019-02-02T10:04:00.080Z,42.90
2019-02-02T10:06:34.263Z,44.00
2019-02-02T10:09:10.612Z,43.40
2019-02-02T10:11:45.026Z,43.20
2019-02-02T10:14:19.856Z,43.00
2019-02-02T10:16:54.680Z,42.40
2019-02-02T10:19:28.510Z,42.60
2019-02-02T10:22:03.164Z,43.20
2019-02-02T10:24:38.029Z,43.40
2019-02-02T10:27:12.351Z,43.60
2019-02-02T10:29:47.438Z,43.30
2019-02-02T10:32:22.389Z,43.00
2019-02-02T10:34:57.076Z,43.00
2019-02-02T10:37:32.424Z,42.80
2019-02-02T10:40:10.587Z,42.20
2019-02-02T10:42:45.899Z,42.00
2019-02-02T10:45:23.046Z,41.70
2019-02-02T10:48:00.270Z,41.70
2019-02-02T10:50:37.430Z,41.80
2019-02-02T10:53:13.162Z,41.30
2019-02-02T10:55:48.684Z,41.30
2019-02-02T10:58:24.241Z,41.30
2019-02-02T11:01:01.278Z,41.20
2019-02-02T11:03:40.525Z,41.30
2019-02-02T11:06:16.630Z,41.50
2019-02-02T11:08:53.167Z,41.80
2019-02-02T11:11:29.721Z,41.90
2019-02-02T11:14:06.609Z,41.90
2019-02-02T11:16:43.960Z,42.40
2019-02-02T11:19:32.423Z,42.30
2019-02-02T11:22:09.856Z,42.30
2019-02-02T11:24:47.645Z,42.30
2019-02-02T11:27:23.818Z,41.90
2019-02-02T11:30:02.800Z,41.80
2019-02-02T11:32:37.783Z,41.90
2019-02-02T11:35:14.924Z,41.80
2019-02-02T11:37:48.608Z,41.70
2019-02-02T11:40:25.037Z,41.80
2019-02-02T11:43:01.223Z,41.70
2019-02-02T11:45:36.938Z,41.50
2019-02-02T11:48:10.832Z,41.20
2019-02-02T11:50:44.196Z,40.90
2019-02-02T11:53:19.028Z,40.80
2019-02-02T11:55:53.340Z,40.90
2019-02-02T11:58:27.645Z,40.60
2019-02-02T12:01:02.276Z,40.20
2019-02-02T12:03:35.987Z,39.90
2019-02-02T12:06:09.052Z,39.80
2019-02-02T12:08:43.443Z,39.60
2019-02-02T12:11:17.695Z,39.80
2019-02-02T12:13:51.454Z,40.00
2019-02-02T12:16:25.331Z,40.20
2019-02-02T12:18:59.161Z,40.20
2019-02-02T12:21:33.482Z,40.10
2019-02-02T12:24:15.938Z,40.00
2019-02-02T12:26:41.673Z,39.80
2019-02-02T12:29:15.487Z,39.60
2019-02-02T12:31:49.593Z,39.10
2019-02-02T12:34:23.903Z,39.10
2019-02-02T12:36:57.836Z,38.90
2019-02-02T12:39:32.023Z,38.60
2019-02-02T12:42:06.285Z,38.60
2019-02-02T12:44:39.667Z,38.50
2019-02-02T12:47:13.578Z,38.10
2019-02-02T12:49:47.619Z,38.00
2019-02-02T12:52:25.383Z,37.70
2019-02-02T12:54:58.879Z,37.50
2019-02-02T12:57:33.005Z,37.50
2019-02-02T13:00:07.948Z,37.30
2019-02-02T13:02:42.376Z,37.20
2019-02-02T13:05:17.470Z,37.10
2019-02-02T13:07:50.396Z,37.10
2019-02-02T13:10:26.030Z,37.10
2019-02-02T13:13:00.621Z,37.30
2019-02-02T13:15:34.743Z,37.40
2019-02-02T13:18:08.094Z,37.10
2019-02-02T13:20:42.269Z,37.30
2019-02-02T13:23:16.358Z,37.80
2019-02-02T13:26:18.666Z,38.30
2019-02-02T13:28:54.900Z,38.70
2019-02-02T13:31:27.899Z,38.70
2019-02-02T13:34:00.513Z,38.50
2019-02-02T13:36:33.096Z,38.60
2019-02-02T13:39:07.930Z,38.70
2019-02-02T13:41:42.617Z,38.90
2019-02-02T13:44:15.290Z,39.00
2019-02-02T13:46:48.161Z,39.20
2019-02-02T13:49:20.666Z,39.00
2019-02-02T13:51:53.577Z,39.00
2019-02-02T13:54:28.103Z,38.80
2019-02-02T13:57:01.876Z,38.80
2019-02-02T13:59:36.429Z,38.80
2019-02-02T14:02:10.167Z,38.60
2019-02-02T14:04:44.397Z,38.40
2019-02-02T14:07:18.489Z,38.30
2019-02-02T14:09:52.085Z,38.30
2019-02-02T14:12:25.940Z,38.50
2019-02-02T14:14:59.886Z,38.70
2019-02-02T14:17:32.804Z,39.00
2019-02-02T14:20:06.363Z,38.90
2019-02-02T14:22:40.182Z,39.00
2019-02-02T14:25:12.978Z,38.90
2019-02-02T14:27:46.837Z,38.90
2019-02-02T14:30:22.382Z,39.00
2019-02-02T14:32:55.460Z,39.00
2019-02-02T14:35:30.049Z,39.60
2019-02-02T14:38:03.863Z,39.40
2019-02-02T14:40:38.327Z,39.70
2019-02-02T14:43:12.616Z,39.20
2019-02-02T14:45:46.845Z,39.00
2019-02-02T14:48:21.199Z,38.80
2019-02-02T14:50:54.121Z,38.40
2019-02-02T14:53:28.377Z,38.30
2019-02-02T14:56:02.179Z,38.10
2019-02-02T14:58:36.298Z,38.40
2019-02-02T15:01:09.640Z,38.40
2019-02-02T15:03:42.890Z,38.50
2019-02-02T15:06:16.656Z,38.60
2019-02-02T15:08:50.011Z,38.30
2019-02-02T15:11:24.208Z,38.10
2019-02-02T15:13:57.986Z,38.10
2019-02-02T15:16:32.269Z,37.90
2019-02-02T15:19:06.785Z,37.70
2019-02-02T15:21:40.176Z,37.50
2019-02-02T15:24:14.367Z,37.30
2019-02-02T15:26:47.756Z,37.10
2019-02-02T15:29:21.982Z,37.00
2019-02-02T15:31:55.701Z,38.30
2019-02-02T15:34:29.897Z,37.70
2019-02-02T15:37:02.881Z,38.10
2019-02-02T15:39:36.658Z,38.40
2019-02-02T15:42:11.731Z,38.80
2019-02-02T15:44:45.947Z,39.40
2019-02-02T15:47:19.669Z,39.80
2019-02-02T15:49:53.969Z,40.30
2019-02-02T15:52:27.393Z,41.00
2019-02-02T15:55:00.961Z,40.90
2019-02-02T15:57:34.469Z,40.50
2019-02-02T16:00:11.612Z,40.30
2019-02-02T16:02:45.357Z,39.90
2019-02-02T16:05:18.753Z,39.70
2019-02-02T16:07:51.149Z,39.80
2019-02-02T16:10:26.903Z,40.20
2019-02-02T16:13:01.301Z,40.70
2019-02-02T16:15:35.025Z,40.80
2019-02-02T16:18:09.831Z,40.70
2019-02-02T16:20:47.832Z,40.60
2019-02-02T16:23:21.537Z,40.90
2019-02-02T16:25:55.348Z,40.70
2019-02-02T16:28:29.057Z,40.60
2019-02-02T16:31:03.316Z,40.80
2019-02-02T16:33:37.168Z,41.10
2019-02-02T16:36:11.727Z,41.70
2019-02-02T16:38:45.571Z,42.20
2019-02-02T16:41:19.820Z,42.60
2019-02-02T16:43:55.454Z,42.90
2019-02-02T16:46:29.405Z,42.70
2019-02-02T16:49:04.617Z,42.60
2019-02-02T16:51:38.834Z,43.10
2019-02-02T16:54:13.410Z,43.30
2019-02-02T16:56:47.271Z,43.00
2019-02-02T16:59:21.465Z,43.20
2019-02-02T17:01:55.489Z,43.40
2019-02-02T17:04:29.442Z,43.10
2019-02-02T17:07:02.442Z,42.90
2019-02-02T17:09:35.866Z,43.40
2019-02-02T17:12:08.791Z,43.30
2019-02-02T17:14:42.689Z,43.40
2019-02-02T17:17:17.749Z,42.90
2019-02-02T17:19:50.278Z,42.60
2019-02-02T17:22:24.171Z,41.90
2019-02-02T17:24:57.509Z,42.10
2019-02-02T17:27:31.716Z,42.30
2019-02-02T17:30:06.341Z,42.50
2019-02-02T17:32:40.590Z,42.70
2019-02-02T17:35:14.842Z,42.70
2019-02-02T17:37:49.087Z,42.80
2019-02-02T17:40:25.112Z,42.90
2019-02-02T17:42:58.931Z,42.50
2019-02-02T17:45:32.740Z,42.40
2019-02-02T17:48:06.878Z,42.50
2019-02-02T17:50:41.814Z,42.50
2019-02-02T17:53:15.424Z,42.50
2019-02-02T17:55:48.709Z,42.40
2019-02-02T17:58:22.694Z,42.30
2019-02-02T18:00:58.221Z,42.70
2019-02-02T18:03:32.106Z,42.70
2019-02-02T18:06:06.195Z,42.40
2019-02-02T18:08:39.580Z,41.90
2019-02-02T18:11:13.797Z,41.60
2019-02-02T18:13:47.603Z,41.90
2019-02-02T18:16:22.021Z,42.40
2019-02-02T18:18:57.112Z,42.50
2019-02-02T18:21:31.434Z,42.50
2019-02-02T18:24:04.463Z,42.40
2019-02-02T18:26:37.401Z,42.20
2019-02-02T18:29:10.341Z,42.30
2019-02-02T18:31:44.446Z,42.20
2019-02-02T18:34:18.137Z,42.50
2019-02-02T18:36:52.217Z,42.40
2019-02-02T18:39:25.808Z,42.00
2019-02-02T18:42:00.067Z,41.90
2019-02-02T18:44:33.825Z,40.70
2019-02-02T18:47:08.252Z,40.50
2019-02-02T18:49:41.249Z,40.70
2019-02-02T18:52:13.717Z,41.10
2019-02-02T18:54:48.166Z,41.70
2019-02-02T18:57:21.071Z,42.10
2019-02-02T18:59:53.519Z,41.90
2019-02-02T19:02:25.980Z,41.20
2019-02-02T19:05:03.948Z,41.10
2019-02-02T19:07:33.193Z,40.60
2019-02-02T19:10:08.175Z,40.40
2019-02-02T19:12:41.449Z,40.10
2019-02-02T19:15:14.462Z,39.90
2019-02-02T19:17:47.873Z,39.70
2019-02-02T19:20:22.305Z,39.80
2019-02-02T19:22:57.272Z,40.00
2019-02-02T19:25:30.443Z,39.70
2019-02-02T19:28:04.431Z,39.60
2019-02-02T19:30:37.956Z,39.70
2019-02-02T19:33:10.961Z,40.20
2019-02-02T19:35:45.105Z,40.20
2019-02-02T19:38:18.971Z,40.10
2019-02-02T19:40:52.991Z,39.90
2019-02-02T19:43:26.308Z,40.20
2019-02-02T19:45:59.550Z,39.90
2019-02-02T19:48:34.345Z,39.80
2019-02-02T19:51:07.946Z,40.00
2019-02-02T19:53:41.534Z,40.50
2019-02-02T19:56:14.638Z,41.10
2019-02-02T19:58:47.751Z,41.10
2019-02-02T20:01:20.490Z,40.70
2019-02-02T20:03:54.415Z,40.50
2019-02-02T20:06:27.920Z,40.10
2019-02-02T20:09:01.957Z,39.80
2019-02-02T20:11:35.881Z,39.90
2019-02-02T20:14:08.369Z,40.00
2019-02-02T20:16:41.437Z,39.70
2019-02-02T20:19:14.377Z,39.70
2019-02-02T20:21:47.905Z,39.10
2019-02-02T20:24:22.244Z,39.10
2019-02-02T20:26:57.293Z,38.90
2019-02-02T20:29:30.743Z,38.90
2019-02-02T20:32:04.276Z,38.90
2019-02-02T20:34:38.527Z,39.00
2019-02-02T20:37:13.284Z,38.80
2019-02-02T20:39:46.512Z,39.30
2019-02-02T20:42:19.032Z,40.10
2019-02-02T20:44:52.953Z,40.20
2019-02-02T20:47:26.375Z,40.30
2019-02-02T20:49:59.843Z,40.80
2019-02-02T20:52:33.205Z,41.00
2019-02-02T20:55:05.793Z,40.90
2019-02-02T20:57:40.410Z,40.90
2019-02-02T21:00:18.397Z,40.90
2019-02-02T21:02:51.608Z,40.40
2019-02-02T21:05:25.078Z,40.20
2019-02-02T21:07:59.150Z,39.90
2019-02-02T21:10:32.094Z,40.20
2019-02-02T21:13:04.080Z,40.20
2019-02-02T21:15:37.360Z,39.90
2019-02-02T21:18:11.913Z,39.90
2019-02-02T21:20:45.139Z,39.70
2019-02-02T21:23:18.749Z,40.00
2019-02-02T21:25:52.243Z,39.60
2019-02-02T21:28:26.176Z,39.70
2019-02-02T21:30:59.543Z,39.60
2019-02-02T21:33:33.598Z,39.90
2019-02-02T21:36:06.237Z,40.30
2019-02-02T21:38:39.757Z,40.70
2019-02-02T21:41:12.822Z,41.00
2019-02-02T21:43:45.762Z,41.50
2019-02-02T21:46:20.095Z,41.80
2019-02-02T21:48:55.768Z,42.00
2019-02-02T21:51:28.781Z,41.80
2019-02-02T21:54:01.983Z,42.20
2019-02-02T21:56:35.585Z,42.50
2019-02-02T21:59:08.004Z,43.00
2019-02-02T22:01:42.740Z,42.80
2019-02-02T22:04:15.605Z,42.60
2019-02-02T22:06:48.642Z,42.50
2019-02-02T22:09:22.893Z,42.30
2019-02-02T22:11:55.835Z,42.40
2019-02-02T22:14:30.253Z,42.60
2019-02-02T22:17:02.909Z,42.60
2019-02-02T22:19:36.463Z,42.70
2019-02-02T22:22:09.978Z,43.10
2019-02-02T22:24:43.099Z,43.10
2019-02-02T22:27:15.675Z,43.60
2019-02-02T22:29:48.068Z,43.20
2019-02-02T22:32:23.796Z,43.10
2019-02-02T22:34:59.050Z,43.30
2019-02-02T22:37:32.710Z,43.20
2019-02-02T22:40:07.447Z,43.60
2019-02-02T22:42:41.921Z,43.60
2019-02-02T22:45:18.298Z,43.70
2019-02-02T22:47:53.456Z,44.00
2019-02-02T22:50:27.820Z,44.20
2019-02-02T22:53:02.603Z,44.60
2019-02-02T22:55:36.900Z,44.60
2019-02-02T22:58:10.809Z,44.60
2019-02-02T23:01:37.043Z,44.80
2019-02-02T23:04:56.524Z,45.10
2019-02-02T23:08:19.646Z,45.10
2019-02-02T23:11:40.406Z,44.70
2019-02-02T23:14:47.982Z,44.60
2019-02-02T23:17:22.015Z,44.60
2019-02-02T23:19:56.211Z,44.20
2019-02-02T23:22:30.119Z,44.00
2019-02-02T23:25:03.467Z,44.20
2019-02-02T23:27:37.482Z,43.70
2019-02-02T23:30:11.532Z,43.10
2019-02-02T23:32:44.931Z,42.70
2019-02-02T23:35:18.149Z,42.60
2019-02-02T23:37:52.562Z,42.30
2019-02-02T23:40:27.973Z,41.90
2019-02-02T23:43:01.772Z,41.70
2019-02-02T23:45:36.691Z,41.60
2019-02-02T23:48:11.928Z,41.50
2019-02-02T23:50:45.680Z,41.50
2019-02-02T23:53:20.274Z,41.40
2019-02-02T23:55:54.513Z,41.30
2019-02-02T23:58:29.367Z,41.30
